Time;durP1;ratioP1;P1;durP2;ratioP2;P2;SDS_P1;SDS_P2;PMS_P1;PMS_P2;Temp;Humidity;BMP_temperature;BMP_pressure;BME280_temperature;BME280_humidity;BME280_pressure;Samples;Min_cycle;Max_cycle;Signal;HPM_P1;HPM_P2
2024/01/25 00:01:21;;;;;;;;;2.00;1.00;;;;;6.12;97.43;99335.31;112816;241;40411;-51
2024/01/25 00:04:00;;;;;;;;;1.00;1.00;;;;;6.14;97.36;99336.79;112768;241;39366;-53
2024/01/25 00:06:40;;;;;;;;;1.00;1.00;;;;;6.15;97.18;99330.91;112745;241;41556;-52
2024/01/25 00:09:23;;;;;;;;;1.00;1.00;;;;;6.15;97.03;99333.09;112790;241;39645;-53
2024/01/25 00:12:00;;;;;;;;;5.00;3.00;;;;;6.13;96.96;99324.53;112807;241;40137;-52
2024/01/25 00:14:36;;;;;;;;;2.00;2.00;;;;;6.11;96.76;99326.77;112830;241;39230;-51
2024/01/25 00:17:16;;;;;;;;;4.00;2.00;;;;;6.07;96.92;99323.91;112752;241;39892;-51
2024/01/25 00:19:52;;;;;;;;;1.00;0.25;;;;;6.06;96.87;99324.23;112818;241;39819;-54
2024/01/25 00:22:30;;;;;;;;;1.00;1.00;;;;;6.05;96.72;99325.61;112749;241;40470;-54
2024/01/25 00:25:06;;;;;;;;;1.00;1.00;;;;;6.02;96.77;99327.19;112821;241;39801;-51
2024/01/25 00:27:44;;;;;;;;;3.00;2.00;;;;;6.02;96.59;99328.95;112808;241;39327;-51
2024/01/25 00:30:19;;;;;;;;;2.00;1.00;;;;;6.02;96.41;99327.55;112803;241;40718;-52
2024/01/25 00:32:55;;;;;;;;;1.75;1.00;;;;;6.01;96.56;99324.33;112831;241;40923;-53
2024/01/25 00:35:33;;;;;;;;;1.00;1.00;;;;;6.00;96.36;99325.87;112827;241;39817;-54
2024/01/25 00:38:10;;;;;;;;;0.00;0.00;;;;;6.01;96.37;99324.98;112780;241;40626;-54
2024/01/25 00:40:45;;;;;;;;;2.00;2.00;;;;;6.04;96.19;99329.41;112845;241;39825;-55
2024/01/25 00:43:20;;;;;;;;;1.00;1.00;;;;;6.06;96.29;99337.05;112834;241;39045;-54
2024/01/25 00:45:56;;;;;;;;;1.00;1.00;;;;;6.06;96.40;99348.68;112818;241;40065;-55
2024/01/25 00:48:32;;;;;;;;;1.00;1.00;;;;;6.03;96.34;99350.49;112786;241;39193;-56
2024/01/25 00:51:24;;;;;;;;;2.00;1.00;;;;;6.01;96.37;99352.70;112804;241;39200;-56
2024/01/25 00:53:59;;;;;;;;;0.50;0.00;;;;;5.98;96.57;99354.59;112858;241;41429;-53
2024/01/25 00:56:35;;;;;;;;;0.25;0.00;;;;;5.94;96.66;99354.29;112824;241;40573;-53
2024/01/25 00:59:12;;;;;;;;;0.25;0.00;;;;;5.91;96.87;99352.62;112825;241;40412;-52
2024/01/25 01:01:56;;;;;;;;;1.00;1.00;;;;;5.93;97.17;99350.09;112783;241;41153;-51
2024/01/25 01:04:33;;;;;;;;;2.00;1.00;;;;;5.90;97.18;99353.84;112807;241;39159;-56
2024/01/25 01:07:14;;;;;;;;;1.00;1.00;;;;;5.86;97.34;99352.73;112786;241;41328;-56
2024/01/25 01:09:53;;;;;;;;;2.00;1.00;;;;;5.83;97.40;99350.86;112781;241;39443;-53
2024/01/25 01:12:33;;;;;;;;;3.50;2.75;;;;;5.82;97.64;99344.58;112769;241;39741;-53
2024/01/25 01:15:09;;;;;;;;;1.00;1.00;;;;;5.80;97.81;99346.48;112780;241;39363;-53
2024/01/25 01:17:47;;;;;;;;;3.00;2.00;;;;;5.77;97.79;99346.96;112788;241;41168;-53
2024/01/25 01:20:29;;;;;;;;;1.00;0.00;;;;;5.78;97.83;99346.16;112800;241;40011;-54
2024/01/25 01:23:17;;;;;;;;;1.00;0.00;;;;;5.73;98.01;99345.14;112771;241;39087;-55
2024/01/25 01:25:57;;;;;;;;;1.00;1.00;;;;;5.73;97.95;99350.38;112811;241;39094;-53
2024/01/25 01:28:35;;;;;;;;;1.00;1.00;;;;;5.73;98.10;99341.64;112770;241;39236;-53
2024/01/25 01:31:10;;;;;;;;;0.75;0.75;;;;;5.69;98.22;99339.73;112826;241;40207;-53
2024/01/25 01:33:51;;;;;;;;;2.00;2.00;;;;;5.70;98.14;99342.75;112789;241;39546;-53
2024/01/25 01:36:29;;;;;;;;;2.00;1.00;;;;;5.67;98.29;99341.06;112815;241;39590;-55
2024/01/25 01:39:14;;;;;;;;;1.00;1.00;;;;;5.69;98.23;99336.52;112762;241;39326;-52
2024/01/25 01:41:51;;;;;;;;;1.50;0.75;;;;;5.69;98.32;99352.21;112768;241;39409;-52
2024/01/25 01:44:29;;;;;;;;;1.00;0.75;;;;;5.71;98.40;99353.61;112787;241;39534;-55
2024/01/25 01:47:08;;;;;;;;;2.00;1.00;;;;;5.71;98.32;99351.08;112778;241;40525;-56
2024/01/25 01:49:44;;;;;;;;;1.00;0.50;;;;;5.66;98.51;99338.29;112782;241;41496;-56
2024/01/25 01:52:25;;;;;;;;;1.00;1.00;;;;;5.68;98.36;99343.33;112788;241;39667;-56
2024/01/25 01:55:02;;;;;;;;;1.75;1.00;;;;;5.68;98.43;99332.58;112798;241;39898;-52
2024/01/25 01:57:39;;;;;;;;;1.00;1.00;;;;;5.67;98.40;99333.76;112796;241;40850;-51
2024/01/25 02:00:16;;;;;;;;;2.00;1.00;;;;;5.69;98.41;99336.38;112799;241;40156;-52
2024/01/25 02:02:52;;;;;;;;;3.00;2.00;;;;;5.71;98.48;99331.52;112755;241;41471;-51
2024/01/25 02:05:32;;;;;;;;;1.00;1.00;;;;;5.70;98.31;99331.08;112812;241;39385;-52
2024/01/25 02:08:10;;;;;;;;;4.00;3.00;;;;;5.71;98.36;99333.15;112807;241;40088;-51
2024/01/25 02:10:48;;;;;;;;;1.00;1.00;;;;;5.72;98.29;99330.13;112835;241;40273;-56
2024/01/25 02:13:22;;;;;;;;;4.25;2.00;;;;;5.70;98.20;99333.93;112803;241;40610;-56
2024/01/25 02:15:58;;;;;;;;;2.00;2.00;;;;;5.68;98.21;99328.30;112796;241;41191;-55
2024/01/25 02:18:37;;;;;;;;;1.00;1.00;;;;;5.66;98.18;99327.77;112792;241;40197;-54
2024/01/25 02:21:14;;;;;;;;;0.67;0.33;;;;;5.67;98.14;99327.20;112814;241;40184;-56
2024/01/25 02:23:52;;;;;;;;;1.00;1.00;;;;;5.67;98.15;99342.54;112792;241;39070;-56
2024/01/25 02:26:27;;;;;;;;;4.00;2.00;;;;;5.66;98.29;99345.74;112784;241;39947;-52
2024/01/25 02:29:09;;;;;;;;;3.00;2.00;;;;;5.67;98.31;99353.83;112835;241;39912;-55
2024/01/25 02:31:49;;;;;;;;;1.00;1.00;;;;;5.63;98.50;99352.29;112768;241;39995;-56
2024/01/25 02:34:28;;;;;;;;;1.00;1.00;;;;;5.61;98.50;99354.84;112775;241;39721;-52
2024/01/25 02:37:03;;;;;;;;;1.00;1.00;;;;;5.62;98.37;99358.13;112762;240;40839;-52
2024/01/25 02:39:43;;;;;;;;;1.00;0.00;;;;;5.64;98.48;99355.59;112781;240;40199;-56
2024/01/25 02:42:20;;;;;;;;;2.00;2.00;;;;;5.66;98.49;99358.77;112754;240;40515;-57
2024/01/25 02:45:01;;;;;;;;;2.00;1.00;;;;;5.64;98.52;99358.95;112810;240;39954;-53
2024/01/25 02:47:44;;;;;;;;;0.00;0.00;;;;;5.63;98.54;99361.20;112762;240;39019;-53
2024/01/25 02:50:24;;;;;;;;;1.00;1.00;;;;;5.62;98.60;99356.31;112816;240;40716;-56
2024/01/25 02:52:59;;;;;;;;;1.00;0.00;;;;;5.58;98.75;99354.36;112840;240;39908;-56
2024/01/25 02:55:38;;;;;;;;;3.00;2.00;;;;;5.57;98.79;99353.06;112818;240;39244;-56
2024/01/25 02:58:16;;;;;;;;;1.00;1.00;;;;;5.57;98.65;99355.91;112783;240;40182;-56
2024/01/25 03:00:51;;;;;;;;;2.00;1.00;;;;;5.55;98.70;99354.55;112820;240;39566;-51
2024/01/25 03:03:28;;;;;;;;;2.00;2.00;;;;;5.54;98.78;99359.83;112783;240;40538;-51
2024/01/25 03:06:13;;;;;;;;;1.00;1.00;;;;;5.55;98.91;99361.73;112786;240;40888;-56
2024/01/25 03:08:52;;;;;;;;;2.00;1.00;;;;;5.52;98.84;99366.13;112761;240;40540;-56
2024/01/25 03:11:32;;;;;;;;;2.25;2.00;;;;;5.53;98.87;99361.36;112782;240;39726;-56
2024/01/25 03:14:14;;;;;;;;;1.00;1.00;;;;;5.52;98.84;99368.25;112816;240;39613;-53
2024/01/25 03:16:53;;;;;;;;;3.00;2.00;;;;;5.48;98.91;99373.90;112788;240;41260;-54
2024/01/25 03:19:30;;;;;;;;;4.00;2.00;;;;;5.45;99.05;99376.80;112824;240;39882;-57
2024/01/25 03:22:07;;;;;;;;;1.00;1.00;;;;;5.43;99.07;99375.50;112772;240;39928;-57
2024/01/25 03:24:45;;;;;;;;;1.00;1.00;;;;;5.44;99.27;99380.29;112783;240;40869;-56
2024/01/25 03:27:20;;;;;;;;;2.00;0.75;;;;;5.46;99.03;99382.42;112755;240;39395;-55
2024/01/25 03:30:00;;;;;;;;;2.00;1.00;;;;;5.47;99.21;99389.29;112845;240;40037;-53
2024/01/25 03:32:40;;;;;;;;;2.00;2.00;;;;;5.46;99.31;99390.42;112826;240;40618;-53
2024/01/25 03:35:19;;;;;;;;;2.00;1.00;;;;;5.47;99.17;99385.17;112818;240;39462;-51
2024/01/25 03:37:59;;;;;;;;;1.00;1.00;;;;;5.46;99.20;99384.48;112799;240;39862;-51
2024/01/25 03:40:39;;;;;;;;;2.00;1.00;;;;;5.47;99.22;99383.16;112798;240;40970;-53
2024/01/25 03:43:17;;;;;;;;;0.50;0.50;;;;;5.45;99.13;99382.99;112757;240;39329;-53
2024/01/25 03:45:56;;;;;;;;;2.00;1.00;;;;;5.43;99.28;99380.80;112828;240;40124;-53
2024/01/25 03:48:35;;;;;;;;;2.00;1.00;;;;;5.43;99.16;99379.91;112793;240;39560;-53
2024/01/25 03:51:10;;;;;;;;;1.00;1.00;;;;;5.42;99.27;99383.56;112812;240;40939;-55
2024/01/25 03:53:49;;;;;;;;;2.67;2.00;;;;;5.44;99.32;99381.70;112804;240;40963;-54
2024/01/25 03:56:26;;;;;;;;;2.00;1.00;;;;;5.46;99.28;99379.38;112767;240;39887;-56
2024/01/25 03:59:00;;;;;;;;;3.00;2.00;;;;;5.45;99.11;99382.30;112838;240;41249;-52
2024/01/25 04:01:42;;;;;;;;;1.00;0.75;;;;;5.45;99.12;99374.70;112760;240;39663;-52
2024/01/25 04:04:21;;;;;;;;;1.25;1.00;;;;;5.46;99.12;99370.64;112798;240;39404;-54
2024/01/25 04:06:59;;;;;;;;;2.00;1.00;;;;;5.42;99.07;99369.74;112799;240;40572;-54
2024/01/25 04:09:39;;;;;;;;;1.25;1.00;;;;;5.39;99.16;99370.20;112790;240;40844;-53
2024/01/25 04:12:17;;;;;;;;;2.00;2.00;;;;;5.38;99.15;99369.58;112791;240;40190;-53
2024/01/25 04:14:56;;;;;;;;;2.00;1.00;;;;;5.36;99.12;99368.19;112806;240;39902;-52
2024/01/25 04:17:38;;;;;;;;;3.00;2.00;;;;;5.34;99.24;99373.80;112780;240;38939;-52
2024/01/25 04:20:15;;;;;;;;;1.50;1.25;;;;;5.33;99.20;99384.78;112783;240;41291;-53
2024/01/25 04:22:52;;;;;;;;;3.00;2.00;;;;;5.34;99.05;99381.80;112780;240;39324;-52
2024/01/25 04:25:38;;;;;;;;;1.00;1.00;;;;;5.33;99.13;99377.63;112811;240;41018;-52
2024/01/25 04:28:15;;;;;;;;;3.00;2.00;;;;;5.33;99.05;99389.14;112779;240;41252;-52
2024/01/25 04:30:53;;;;;;;;;1.00;1.00;;;;;5.32;99.13;99386.46;112856;240;39458;-52
2024/01/25 04:33:30;;;;;;;;;1.00;1.00;;;;;5.31;99.11;99383.80;112787;240;41157;-52
2024/01/25 04:36:06;;;;;;;;;1.00;1.00;;;;;5.31;98.99;99396.52;112801;240;40821;-52
2024/01/25 04:38:42;;;;;;;;;1.00;1.00;;;;;5.28;99.05;99399.11;112815;240;39247;-51
2024/01/25 04:41:18;;;;;;;;;2.00;1.00;;;;;5.26;98.87;99403.88;112821;240;39698;-54
2024/01/25 04:44:02;;;;;;;;;0.33;0.33;;;;;5.25;99.06;99405.20;112827;240;40470;-52
2024/01/25 04:46:40;;;;;;;;;2.00;1.00;;;;;5.28;98.87;99404.16;112809;240;40935;-54
2024/01/25 04:49:21;;;;;;;;;0.00;0.00;;;;;5.29;98.95;99398.14;112825;240;40579;-54
2024/01/25 04:52:06;;;;;;;;;1.00;1.00;;;;;5.25;98.96;99402.72;112792;240;41103;-55
2024/01/25 04:54:42;;;;;;;;;0.00;0.00;;;;;5.26;98.99;99413.16;112865;240;39694;-56
2024/01/25 04:57:19;;;;;;;;;1.00;1.00;;;;;5.22;98.92;99404.52;112782;240;39747;-56
2024/01/25 04:59:55;;;;;;;;;1.00;1.00;;;;;5.23;98.86;99406.48;112840;240;40200;-54
2024/01/25 05:02:31;;;;;;;;;0.25;0.00;;;;;5.23;98.89;99407.23;112773;240;41027;-54
2024/01/25 05:05:08;;;;;;;;;0.00;0.00;;;;;5.24;98.67;99410.16;112816;240;40543;-53
2024/01/25 05:07:44;;;;;;;;;1.00;1.00;;;;;5.24;98.54;99411.58;112426;240;39875;-53
2024/01/25 05:10:26;;;;;;;;;2.00;2.00;;;;;5.25;98.39;99417.02;112818;240;39577;-52
2024/01/25 05:13:05;;;;;;;;;2.00;1.00;;;;;5.23;98.44;99406.92;112785;240;41127;-53
2024/01/25 05:15:42;;;;;;;;;0.00;0.00;;;;;5.23;98.31;99410.44;112831;240;40836;-54
2024/01/25 05:18:22;;;;;;;;;0.50;0.00;;;;;5.21;98.17;99413.20;112760;240;39669;-52
2024/01/25 05:21:06;;;;;;;;;1.00;1.00;;;;;5.24;98.16;99412.80;112840;240;39911;-51
2024/01/25 05:23:42;;;;;;;;;1.67;1.00;;;;;5.23;98.03;99415.66;112811;240;40213;-51
2024/01/25 05:26:19;;;;;;;;;1.00;1.00;;;;;5.23;98.00;99410.40;112834;240;41136;-56
2024/01/25 05:28:54;;;;;;;;;1.00;0.00;;;;;5.24;97.93;99417.09;112798;240;40224;-54
2024/01/25 05:31:39;;;;;;;;;1.00;0.00;;;;;5.25;97.85;99419.28;112816;240;41122;-51
2024/01/25 05:34:23;;;;;;;;;1.00;0.00;;;;;5.26;97.84;99421.36;112808;240;39699;-51
2024/01/25 05:37:02;;;;;;;;;0.00;0.00;;;;;5.26;97.76;99426.37;112812;240;39925;-51
2024/01/25 05:39:42;;;;;;;;;1.00;0.75;;;;;5.27;97.54;99425.83;112839;240;40765;-52
2024/01/25 05:42:22;;;;;;;;;2.00;1.00;;;;;5.27;97.50;99431.76;112787;240;40550;-51
2024/01/25 05:44:59;;;;;;;;;1.00;1.00;;;;;5.26;97.46;99433.84;112840;240;41411;-51
2024/01/25 05:47:41;;;;;;;;;0.67;0.33;;;;;5.26;97.51;99433.48;112787;240;39798;-51
2024/01/25 05:50:19;;;;;;;;;0.00;0.00;;;;;5.28;97.40;99436.64;112806;240;41445;-52
2024/01/25 05:52:59;;;;;;;;;2.00;1.00;;;;;5.29;97.38;99443.80;112810;240;39339;-52
2024/01/25 05:55:42;;;;;;;;;1.00;0.33;;;;;5.31;97.07;99445.63;112806;240;40913;-54
2024/01/25 05:58:24;;;;;;;;;0.50;0.00;;;;;5.32;97.14;99446.71;112817;240;39415;-54
2024/01/25 06:01:07;;;;;;;;;1.00;1.00;;;;;5.33;96.94;99451.15;112780;240;39891;-54
2024/01/25 06:03:44;;;;;;;;;2.00;1.00;;;;;5.29;97.00;99451.45;112807;240;39923;-55
2024/01/25 06:06:22;;;;;;;;;1.00;1.00;;;;;5.31;96.97;99451.06;112779;240;40238;-53
2024/01/25 06:09:00;;;;;;;;;0.00;0.00;;;;;5.32;96.76;99457.05;112810;240;40512;-53
2024/01/25 06:11:41;;;;;;;;;0.00;0.00;;;;;5.33;96.86;99457.07;112787;240;40384;-53
2024/01/25 06:14:23;;;;;;;;;1.00;0.00;;;;;5.34;96.62;99461.77;112778;240;40721;-53
2024/01/25 06:17:05;;;;;;;;;0.00;0.00;;;;;5.33;96.56;99465.23;112772;240;39188;-53
2024/01/25 06:19:50;;;;;;;;;1.00;1.00;;;;;5.33;96.57;99467.62;112788;240;40842;-52
2024/01/25 06:22:29;;;;;;;;;1.00;1.00;;;;;5.36;96.39;99478.16;112748;240;39423;-53
2024/01/25 06:25:04;;;;;;;;;0.00;0.00;;;;;5.35;96.35;99475.29;112799;240;39609;-55
2024/01/25 06:27:42;;;;;;;;;1.50;1.25;;;;;5.35;96.13;99463.70;112796;240;39823;-56
2024/01/25 06:30:22;;;;;;;;;2.00;1.00;;;;;5.35;96.18;99466.27;112796;240;40221;-55
2024/01/25 06:33:03;;;;;;;;;1.00;1.00;;;;;5.35;96.10;99469.81;112782;240;39577;-56
2024/01/25 06:35:42;;;;;;;;;0.00;0.00;;;;;5.38;95.94;99468.53;112822;240;39968;-53
2024/01/25 06:38:18;;;;;;;;;1.00;1.00;;;;;5.36;95.93;99467.60;112786;240;40213;-52
2024/01/25 06:40:54;;;;;;;;;1.25;1.00;;;;;5.36;95.97;99469.38;112812;240;40464;-52
2024/01/25 06:43:29;;;;;;;;;1.00;1.00;;;;;5.35;96.10;99469.02;112784;240;39279;-52
2024/01/25 06:46:07;;;;;;;;;3.00;1.00;;;;;5.34;96.17;99470.33;112818;240;40512;-53
2024/01/25 06:48:46;;;;;;;;;0.25;0.25;;;;;5.35;96.28;99477.05;112788;240;41225;-52
2024/01/25 06:51:21;;;;;;;;;2.00;1.00;;;;;5.33;96.45;99477.67;112764;240;41099;-52
2024/01/25 06:54:01;;;;;;;;;0.67;0.00;;;;;5.29;96.54;99470.90;112808;240;40221;-53
2024/01/25 06:56:42;;;;;;;;;1.00;1.00;;;;;5.31;96.55;99473.90;112802;240;40591;-53
2024/01/25 06:59:21;;;;;;;;;3.00;2.00;;;;;5.27;96.84;99480.46;112799;240;39524;-55
2024/01/25 07:01:57;;;;;;;;;2.00;1.00;;;;;5.30;96.92;99485.90;112762;240;39099;-56
2024/01/25 07:04:37;;;;;;;;;1.75;1.00;;;;;5.27;96.96;99487.58;112783;240;39519;-57
2024/01/25 07:07:15;;;;;;;;;1.00;1.00;;;;;5.25;97.17;99489.17;112812;240;39991;-57
2024/01/25 07:09:48;;;;;;;;;1.00;1.00;;;;;5.25;97.15;99493.35;112812;240;41061;-55
2024/01/25 07:12:27;;;;;;;;;1.00;1.00;;;;;5.28;97.26;99499.86;112792;240;39391;-55
2024/01/25 07:15:06;;;;;;;;;1.00;1.00;;;;;5.30;97.32;99499.45;112802;240;40084;-54
2024/01/25 07:17:42;;;;;;;;;2.00;1.00;;;;;5.25;97.52;99498.75;112787;240;39839;-54
2024/01/25 07:20:21;;;;;;;;;2.25;1.00;;;;;5.26;97.51;99499.84;112819;240;39668;-57
2024/01/25 07:22:58;;;;;;;;;1.00;1.00;;;;;5.24;97.57;99503.83;112776;240;40383;-57
2024/01/25 07:25:38;;;;;;;;;1.75;1.00;;;;;5.22;97.77;99508.23;112786;240;40266;-52
2024/01/25 07:28:19;;;;;;;;;1.00;1.00;;;;;5.26;97.79;99507.24;112774;240;39766;-52
2024/01/25 07:30:54;;;;;;;;;1.00;0.00;;;;;5.24;97.76;99510.06;112819;240;40372;-55
2024/01/25 07:33:32;;;;;;;;;2.00;1.00;;;;;5.25;97.90;99506.48;112798;240;39963;-55
2024/01/25 07:36:09;;;;;;;;;1.00;1.00;;;;;5.18;98.23;99511.38;112812;240;39358;-53
2024/01/25 07:38:49;;;;;;;;;2.00;1.00;;;;;5.20;98.25;99512.87;112782;240;39887;-52
2024/01/25 07:41:31;;;;;;;;;0.00;0.00;;;;;5.22;98.15;99518.67;112806;240;39618;-52
2024/01/25 07:44:15;;;;;;;;;0.00;0.00;;;;;5.22;98.36;99513.21;112804;240;39342;-52
2024/01/25 07:46:56;;;;;;;;;0.00;0.00;;;;;5.23;98.31;99516.80;112815;240;39170;-52
2024/01/25 07:49:42;;;;;;;;;1.00;1.00;;;;;5.27;98.34;99517.23;112785;240;39982;-52
2024/01/25 07:52:18;;;;;;;;;1.00;1.00;;;;;5.29;98.43;99517.02;112794;240;39200;-52
2024/01/25 07:54:54;;;;;;;;;0.00;0.00;;;;;5.27;98.54;99516.04;112816;240;39685;-57
2024/01/25 07:57:35;;;;;;;;;1.00;1.00;;;;;5.24;98.56;99513.89;112761;240;38997;-57
2024/01/25 08:00:14;;;;;;;;;0.00;0.00;;;;;5.25;98.72;99519.45;112807;240;39679;-56
2024/01/25 08:02:54;;;;;;;;;2.00;1.50;;;;;5.21;98.72;99528.45;112782;240;39654;-56
2024/01/25 08:05:38;;;;;;;;;1.00;1.00;;;;;5.23;98.92;99524.02;112767;240;39907;-55
2024/01/25 08:08:18;;;;;;;;;1.00;0.75;;;;;5.23;99.09;99529.19;112767;240;39189;-55
2024/01/25 08:10:55;;;;;;;;;1.00;1.00;;;;;5.24;98.89;99531.05;112738;240;39748;-52
2024/01/25 08:13:31;;;;;;;;;1.00;1.00;;;;;5.23;99.05;99529.00;112748;240;39566;-52
2024/01/25 08:16:10;;;;;;;;;2.00;1.00;;;;;5.21;99.04;99533.84;112780;240;39117;-53
2024/01/25 08:18:55;;;;;;;;;2.00;1.00;;;;;5.18;99.22;99532.24;112735;240;40277;-53
2024/01/25 08:21:37;;;;;;;;;2.00;2.00;;;;;5.21;99.24;99534.01;112746;240;41385;-56
2024/01/25 08:24:23;;;;;;;;;2.00;1.00;;;;;5.28;99.17;99530.66;112782;240;40472;-56
2024/01/25 08:27:07;;;;;;;;;1.00;1.00;;;;;5.31;99.14;99535.32;112797;240;40100;-56
2024/01/25 08:29:43;;;;;;;;;2.75;2.00;;;;;5.39;99.13;99538.51;112815;240;39246;-52
2024/01/25 08:32:20;;;;;;;;;1.00;1.00;;;;;5.40;99.41;99540.02;112797;240;40017;-52
2024/01/25 08:34:55;;;;;;;;;3.00;3.00;;;;;5.43;99.15;99544.02;112784;240;38887;-53
2024/01/25 08:37:39;;;;;;;;;2.00;2.00;;;;;5.42;99.21;99544.33;112780;240;41002;-54
2024/01/25 08:40:17;;;;;;;;;1.00;1.00;;;;;5.46;99.16;99545.52;112736;240;39361;-57
2024/01/25 08:43:01;;;;;;;;;1.00;1.00;;;;;5.46;99.14;99547.95;112764;240;39527;-57
2024/01/25 08:45:40;;;;;;;;;3.00;2.00;;;;;5.50;99.07;99551.90;112803;240;39604;-53
2024/01/25 08:48:14;;;;;;;;;1.00;1.00;;;;;5.52;99.11;99555.74;112771;240;39666;-52
2024/01/25 08:50:53;;;;;;;;;1.00;1.00;;;;;5.56;99.05;99554.81;112778;240;40145;-52
2024/01/25 08:53:31;;;;;;;;;2.25;2.00;;;;;5.56;98.91;99561.24;112760;240;39863;-52
2024/01/25 08:56:09;;;;;;;;;2.25;2.00;;;;;5.52;99.07;99563.68;112769;240;40594;-53
2024/01/25 08:58:50;;;;;;;;;1.00;1.00;;;;;5.50;98.99;99568.92;112823;240;38926;-54
2024/01/25 09:01:27;;;;;;;;;2.00;1.50;;;;;5.47;99.20;99576.77;112794;240;39616;-57
2024/01/25 09:04:03;;;;;;;;;2.00;2.00;;;;;5.49;99.30;99584.19;112801;240;39814;-55
2024/01/25 09:06:45;;;;;;;;;2.00;2.00;;;;;5.53;99.41;99581.58;112743;240;39548;-56
2024/01/25 09:09:31;;;;;;;;;3.00;2.00;;;;;5.54;99.31;99595.38;112823;240;38955;-54
2024/01/25 09:12:11;;;;;;;;;2.25;2.00;;;;;5.51;99.51;99602.13;112790;240;41108;-53
2024/01/25 09:14:49;;;;;;;;;2.50;2.00;;;;;5.53;99.49;99605.85;112855;240;40539;-55
2024/01/25 09:17:30;;;;;;;;;2.00;2.00;;;;;5.55;99.59;99610.61;112805;240;40758;-55
2024/01/25 09:20:10;;;;;;;;;2.00;2.00;;;;;5.56;99.53;99616.15;112818;240;39713;-56
2024/01/25 09:22:46;;;;;;;;;2.00;1.50;;;;;5.54;99.72;99618.38;112818;240;39094;-57
2024/01/25 09:25:22;;;;;;;;;2.00;2.00;;;;;5.53;99.72;99618.48;112802;240;40439;-52
2024/01/25 09:27:58;;;;;;;;;3.00;2.00;;;;;5.57;99.77;99623.05;112818;240;40682;-52
2024/01/25 09:30:39;;;;;;;;;3.00;2.00;;;;;5.61;99.78;99623.36;112810;240;41214;-55
2024/01/25 09:33:21;;;;;;;;;2.00;2.00;;;;;5.60;99.92;99633.45;112765;240;39802;-55
2024/01/25 09:36:05;;;;;;;;;4.00;3.00;;;;;5.59;99.93;99631.58;112817;240;39887;-52
2024/01/25 09:38:44;;;;;;;;;3.00;2.00;;;;;5.60;99.98;99634.65;112774;240;40546;-52
2024/01/25 09:41:24;;;;;;;;;3.00;3.00;;;;;5.63;99.98;99635.54;112817;240;39702;-56
2024/01/25 09:44:02;;;;;;;;;4.00;3.00;;;;;5.69;100.00;99641.63;112824;240;40689;-52
2024/01/25 09:46:43;;;;;;;;;6.00;5.00;;;;;5.70;100.00;99652.21;112799;240;39332;-52
2024/01/25 09:49:24;;;;;;;;;5.50;4.00;;;;;5.70;100.00;99654.55;112865;240;39919;-52
2024/01/25 09:52:04;;;;;;;;;4.00;3.00;;;;;5.70;100.00;99651.07;112818;240;39368;-52
2024/01/25 09:54:43;;;;;;;;;4.00;3.00;;;;;5.65;100.00;99652.77;112842;240;39948;-56
2024/01/25 09:57:24;;;;;;;;;3.00;2.00;;;;;5.70;100.00;99657.77;112767;240;40456;-56
2024/01/25 10:00:05;;;;;;;;;3.50;3.00;;;;;5.77;100.00;99661.28;112794;240;39956;-53
2024/01/25 10:02:42;;;;;;;;;5.00;3.00;;;;;5.84;100.00;99662.80;112778;240;38998;-53
2024/01/25 10:05:17;;;;;;;;;3.00;2.00;;;;;5.81;100.00;99663.14;112782;240;40213;-56
2024/01/25 10:08:01;;;;;;;;;3.00;2.00;;;;;5.85;100.00;99671.27;112772;240;40074;-56
2024/01/25 10:10:40;;;;;;;;;3.00;3.00;;;;;5.81;100.00;99673.78;112793;240;39562;-53
2024/01/25 10:13:24;;;;;;;;;4.00;3.00;;;;;5.81;100.00;99680.58;112763;240;39637;-53
2024/01/25 10:16:02;;;;;;;;;3.25;3.00;;;;;5.83;99.95;99680.23;112773;240;39720;-51
2024/01/25 10:18:42;;;;;;;;;3.25;3.00;;;;;5.83;99.93;99685.27;112754;240;39498;-52
2024/01/25 10:21:21;;;;;;;;;2.00;2.00;;;;;5.85;99.96;99687.31;112806;240;38987;-55
2024/01/25 10:24:01;;;;;;;;;2.00;2.00;;;;;5.81;100.00;99683.98;112810;240;39261;-52
2024/01/25 10:26:39;;;;;;;;;3.00;2.00;;;;;5.83;100.00;99687.71;112791;240;40766;-52
2024/01/25 10:29:18;;;;;;;;;2.00;2.00;;;;;5.83;100.00;99687.71;112814;240;39632;-56
2024/01/25 10:31:57;;;;;;;;;2.00;2.00;;;;;5.86;99.98;99685.02;112757;240;40904;-56
2024/01/25 10:34:36;;;;;;;;;2.67;2.00;;;;;5.91;99.94;99684.10;112805;240;40749;-53
2024/01/25 10:37:19;;;;;;;;;3.00;2.00;;;;;5.96;99.95;99692.69;112751;240;40097;-53
2024/01/25 10:40:05;;;;;;;;;3.50;3.00;;;;;6.07;99.98;99699.12;112780;240;39415;-55
2024/01/25 10:42:49;;;;;;;;;1.00;1.00;;;;;6.13;99.98;99699.58;112796;240;40332;-55
2024/01/25 10:45:25;;;;;;;;;1.00;1.00;;;;;6.22;99.85;99702.85;112795;240;39486;-53
2024/01/25 10:48:04;;;;;;;;;3.00;2.25;;;;;6.22;99.85;99696.37;112790;240;39258;-53
2024/01/25 10:50:40;;;;;;;;;3.00;2.00;;;;;6.25;99.65;99698.06;112818;240;39933;-52
2024/01/25 10:53:15;;;;;;;;;2.00;2.00;;;;;6.24;99.43;99706.02;112784;240;40100;-51
2024/01/25 10:55:52;;;;;;;;;2.00;2.00;;;;;6.28;99.50;99708.40;112780;240;39671;-53
2024/01/25 10:58:33;;;;;;;;;2.00;2.00;;;;;6.26;99.25;99709.02;112784;240;39159;-53
2024/01/25 11:01:12;;;;;;;;;2.00;2.00;;;;;6.20;98.88;99714.68;112847;240;39470;-56
2024/01/25 11:03:50;;;;;;;;;1.00;1.00;;;;;6.25;98.91;99715.31;112775;240;40628;-56
2024/01/25 11:06:29;;;;;;;;;3.25;2.75;;;;;6.28;98.88;99718.55;112761;240;39282;-55
2024/01/25 11:09:17;;;;;;;;;1.25;1.00;;;;;6.24;98.76;99711.73;112810;240;40559;-53
2024/01/25 11:12:00;;;;;;;;;2.00;2.00;;;;;6.20;98.59;99709.73;112755;240;40143;-54
2024/01/25 11:14:41;;;;;;;;;0.75;0.75;;;;;6.17;98.39;99715.88;112795;240;40558;-57
2024/01/25 11:17:23;;;;;;;;;2.00;1.00;;;;;6.18;98.29;99722.64;112771;240;39764;-57
2024/01/25 11:20:05;;;;;;;;;2.00;2.00;;;;;6.21;98.38;99725.84;112822;240;39208;-52
2024/01/25 11:22:48;;;;;;;;;1.50;1.00;;;;;6.24;98.28;99728.30;112806;240;40428;-53
2024/01/25 11:25:29;;;;;;;;;1.00;1.00;;;;;6.22;98.28;99731.39;112823;240;39385;-55
2024/01/25 11:28:05;;;;;;;;;1.75;1.00;;;;;6.24;98.12;99737.12;112813;240;41014;-56
2024/01/25 11:30:41;;;;;;;;;5.00;2.00;;;;;6.25;98.32;99734.34;112814;240;39283;-54
2024/01/25 11:33:19;;;;;;;;;3.00;2.00;;;;;6.26;98.09;99738.17;112767;240;39808;-54
2024/01/25 11:36:04;;;;;;;;;2.67;2.00;;;;;6.32;98.13;99740.65;112806;240;39326;-57
2024/01/25 11:38:46;;;;;;;;;3.00;2.00;;;;;6.33;97.74;99740.81;112784;240;39711;-57
2024/01/25 11:41:25;;;;;;;;;2.00;1.75;;;;;6.41;97.61;99745.41;112770;240;39845;-52
2024/01/25 11:44:03;;;;;;;;;2.75;2.00;;;;;6.42;97.70;99748.44;112815;240;40261;-51
2024/01/25 11:46:44;;;;;;;;;2.00;2.00;;;;;6.49;97.28;99754.38;112782;240;39649;-52
2024/01/25 11:49:26;;;;;;;;;5.00;4.00;;;;;6.43;97.22;99758.59;112798;240;39248;-51
2024/01/25 11:52:04;;;;;;;;;2.00;2.00;;;;;6.46;97.18;99763.70;112788;240;40566;-51
2024/01/25 11:54:45;;;;;;;;;1.25;1.25;;;;;6.48;97.01;99768.20;112816;240;39778;-51
2024/01/25 11:57:20;;;;;;;;;2.00;1.00;;;;;6.51;96.74;99773.04;112804;240;39502;-51
2024/01/25 12:00:29;;;;;;;;;3.00;2.33;;;;;6.41;96.39;99769.42;112825;240;40532;-52
2024/01/25 12:03:04;;;;;;;;;5.00;4.00;;;;;6.27;96.64;99777.46;112806;240;41734;-52
2024/01/25 12:05:42;;;;;;;;;1.75;1.00;;;;;6.27;96.89;99778.91;112836;240;38961;-56
2024/01/25 12:08:24;;;;;;;;;1.00;1.00;;;;;6.25;96.91;99792.77;112757;240;39665;-56
2024/01/25 12:11:10;;;;;;;;;2.00;2.00;;;;;6.22;97.07;99797.91;112788;240;39715;-56
2024/01/25 12:13:46;;;;;;;;;2.00;2.00;;;;;6.17;97.31;99802.50;112822;240;39697;-56
2024/01/25 12:16:24;;;;;;;;;4.00;3.00;;;;;6.15;97.36;99818.30;112813;240;39089;-56
2024/01/25 12:19:03;;;;;;;;;2.00;1.00;;;;;6.07;97.61;99823.25;112781;240;40461;-56
2024/01/25 12:21:44;;;;;;;;;3.75;3.00;;;;;6.08;97.65;99833.25;112781;240;40993;-57
2024/01/25 12:24:22;;;;;;;;;3.00;3.00;;;;;6.09;97.60;99837.43;112756;240;40315;-57
2024/01/25 12:27:03;;;;;;;;;3.00;3.00;;;;;6.02;97.92;99853.38;112765;240;41127;-59
2024/01/25 12:29:43;;;;;;;;;1.00;1.00;;;;;5.94;98.18;99866.10;112848;240;39874;-59
2024/01/25 12:32:22;;;;;;;;;3.00;2.00;;;;;5.88;98.29;99890.34;112796;240;41596;-60
2024/01/25 12:35:04;;;;;;;;;1.75;1.00;;;;;5.69;98.47;99894.05;112776;240;40091;-58
2024/01/25 12:37:42;;;;;;;;;1.33;1.33;;;;;5.57;98.15;99915.48;112765;240;39208;-58